Time;durP1;ratioP1;P1;durP2;ratioP2;P2;SDS_P1;SDS_P2;PMS_P1;PMS_P2;Temp;Humidity;BMP_temperature;BMP_pressure;BME280_temperature;BME280_humidity;BME280_pressure;Samples;Min_cycle;Max_cycle;Signal;HPM_P1;HPM_P2
2022/07/24 00:06:31;;;;;;;26.00;22.00;;;;;;;19.89;72.94;98760.08;433740;1267;97893;-42
2022/07/24 00:16:34;;;;;;;24.00;21.30;;;;;;;19.81;73.21;98766.59;432917;1269;108804;-43
2022/07/24 00:26:38;;;;;;;24.20;21.70;;;;;;;19.69;73.36;98779.02;433866;1267;97393;-41
2022/07/24 00:46:46;;;;;;;19.70;17.60;;;;;;;19.52;73.48;98792.85;433557;1267;106340;-42
2022/07/24 00:56:53;;;;;;;23.00;18.20;;;;;;;19.40;73.63;98798.98;433541;1267;97525;-43
2022/07/24 01:06:56;;;;;;;18.90;17.00;;;;;;;19.25;73.64;98807.32;434436;1256;108840;-41
2022/07/24 01:17:01;;;;;;;18.20;16.20;;;;;;;19.02;73.45;98807.56;434007;1267;97500;-42
2022/07/24 01:27:04;;;;;;;17.10;15.40;;;;;;;18.83;73.77;98804.97;434227;1268;111902;-42
2022/07/24 01:37:08;;;;;;;18.20;15.20;;;;;;;18.64;73.70;98798.65;434043;1267;108831;-44
2022/07/24 01:47:11;;;;;;;17.60;13.80;;;;;;;18.40;73.64;98797.28;434079;1267;97653;-41
2022/07/24 01:57:15;;;;;;;19.80;13.30;;;;;;;18.18;73.67;98789.80;434155;1266;109059;-45
2022/07/24 02:07:23;;;;;;;14.20;11.60;;;;;;;17.98;73.82;98795.66;434070;1267;98346;-41
2022/07/24 02:17:27;;;;;;;15.80;11.80;;;;;;;17.87;73.89;98799.61;434161;1266;111176;-43
2022/07/24 02:27:30;;;;;;;16.50;12.50;;;;;;;17.64;73.80;98800.02;434187;1266;108725;-42
2022/07/24 02:37:35;;;;;;;17.20;12.00;;;;;;;17.49;73.82;98799.09;434305;1266;97900;-44
2022/07/24 02:47:46;;;;;;;14.00;11.70;;;;;;;17.32;73.93;98807.73;434200;1266;108663;-44
2022/07/24 02:57:49;;;;;;;14.80;12.30;;;;;;;17.27;74.05;98814.09;434180;1268;97939;-43
2022/07/24 03:07:53;;;;;;;12.60;11.00;;;;;;;17.24;74.15;98823.48;434158;1267;109976;-42
2022/07/24 03:17:58;;;;;;;14.40;11.70;;;;;;;17.21;74.14;98824.13;434028;1266;109031;-45
2022/07/24 03:28:01;;;;;;;12.10;10.90;;;;;;;17.08;73.82;98832.31;434153;1268;97382;-43
2022/07/24 03:38:05;;;;;;;15.00;10.80;;;;;;;17.07;73.82;98831.73;434089;1267;108837;-42
2022/07/24 03:48:09;;;;;;;13.80;10.40;;;;;;;17.42;73.76;98839.05;434187;1267;97867;-42
2022/07/24 03:58:13;;;;;;;12.30;9.80;;;;;;;19.65;72.49;98847.23;434025;1267;111025;-43
2022/07/24 04:08:17;;;;;;;10.50;9.40;;;;;;;21.22;70.64;98847.59;434364;1268;97964;-42
2022/07/24 04:18:21;;;;;;;12.70;10.30;;;;;;;22.61;69.11;98852.84;434185;1267;97958;-42
2022/07/24 04:28:25;;;;;;;11.70;9.60;;;;;;;24.26;67.43;98853.22;434164;1267;111369;-42
2022/07/24 04:38:28;;;;;;;17.30;9.40;;;;;;;25.11;65.20;98862.41;434309;1267;97901;-42
2022/07/24 04:48:32;;;;;;;9.90;8.90;;;;;;;25.74;63.51;98872.20;434074;1266;98156;-43
2022/07/24 04:58:36;;;;;;;11.80;7.40;;;;;;;26.12;62.09;98881.58;434373;1266;111144;-43
2022/07/24 05:08:40;;;;;;;10.90;8.20;;;;;;;26.33;60.87;98894.52;434141;1268;97923;-42
2022/07/24 05:18:45;;;;;;;10.90;7.60;;;;;;;26.20;59.56;98899.81;434042;1267;97888;-43
2022/07/24 05:28:48;;;;;;;11.00;7.20;;;;;;;25.82;59.27;98908.43;434151;1267;97894;-42
2022/07/24 05:38:55;;;;;;;12.60;7.60;;;;;;;25.92;58.90;98907.41;434268;1266;108817;-43
2022/07/24 05:48:58;;;;;;;;;;;;;;;25.78;57.80;98912.07;434201;1267;97907;-43
2022/07/24 05:59:03;;;;;;;10.00;7.20;;;;;;;25.48;57.40;98920.45;434360;1266;110885;-42
2022/07/24 06:09:07;;;;;;;10.90;8.00;;;;;;;25.47;56.95;98925.64;434057;1267;528836;-42
2022/07/24 06:19:11;;;;;;;15.60;8.70;;;;;;;25.65;56.62;98923.86;434095;1267;97946;-43
2022/07/24 06:29:15;;;;;;;6.90;6.20;;;;;;;25.86;56.08;98923.95;434226;1268;97916;-43
2022/07/24 06:39:22;;;;;;;8.40;7.50;;;;;;;25.86;54.99;98928.73;434293;1268;108461;-43
2022/07/24 06:49:26;;;;;;;7.80;6.90;;;;;;;25.82;54.72;98930.42;434161;1267;97870;-44
2022/07/24 06:59:30;;;;;;;9.60;8.20;;;;;;;25.89;54.72;98933.05;433981;1267;97927;-46
2022/07/24 07:19:37;;;;;;;9.40;7.90;;;;;;;26.14;54.02;98927.80;434189;1266;98123;-43
2022/07/24 07:29:41;;;;;;;8.80;6.60;;;;;;;25.65;52.57;98921.25;434276;1268;111274;-43
2022/07/24 07:39:45;;;;;;;8.20;5.80;;;;;;;25.22;53.17;98929.41;434026;1266;97929;-43
2022/07/24 07:49:49;;;;;;;5.70;4.90;;;;;;;25.56;53.27;98930.22;434019;1266;97983;-45
2022/07/24 07:59:52;;;;;;;6.80;4.50;;;;;;;25.94;51.87;98935.65;434105;1266;110948;-42
2022/07/24 08:09:56;;;;;;;6.40;5.70;;;;;;;25.77;50.68;98932.94;434102;1266;97923;-43
2022/07/24 08:20:00;;;;;;;3.40;3.20;;;;;;;25.48;50.80;98941.86;434213;1268;97938;-43
2022/07/24 08:30:04;;;;;;;4.90;3.60;;;;;;;25.77;50.01;98939.89;434101;1266;110918;-44
2022/07/24 08:40:10;;;;;;;6.40;3.50;;;;;;;25.69;48.80;98947.27;434173;1268;97955;-43
2022/07/24 08:50:13;;;;;;;9.40;3.40;;;;;;;25.74;48.83;98956.48;434434;1267;96790;-44
2022/07/24 09:00:18;;;;;;;9.00;2.90;;;;;;;25.86;48.25;98952.66;434317;1267;98022;-44
2022/07/24 09:10:29;;;;;;;5.60;3.30;;;;;;;25.94;46.62;98956.33;433913;1266;107883;-43
2022/07/24 09:20:37;;;;;;;5.10;3.20;;;;;;;26.23;46.18;98959.23;434299;1266;98526;-43
2022/07/24 09:30:43;;;;;;;5.30;2.70;;;;;;;26.40;45.15;98959.52;434409;1268;110353;-43
2022/07/24 09:40:49;;;;;;;6.30;2.40;;;;;;;26.83;44.12;98966.09;434231;1267;108634;-42
2022/07/24 09:50:56;;;;;;;4.30;2.50;;;;;;;26.67;42.84;98965.55;434241;1268;97894;-46
2022/07/24 10:01:01;;;;;;;4.10;2.60;;;;;;;26.59;42.42;98957.80;434421;1267;111433;-45
2022/07/24 10:11:03;;;;;;;4.30;1.80;;;;;;;26.11;42.42;98962.69;434192;1268;109506;-43
2022/07/24 10:31:14;;;;;;;1.50;1.40;;;;;;;26.26;41.23;98955.41;434168;1268;97902;-43
2022/07/24 10:51:30;;;;;;;1.20;1.10;;;;;;;26.59;39.68;98946.79;434023;1268;97993;-44
2022/07/24 11:01:37;;;;;;;2.50;0.90;;;;;;;26.39;39.40;98944.49;434228;1265;98029;-44
2022/07/24 11:11:40;;;;;;;;;;;;;;;26.59;38.71;98942.98;434216;1267;109994;-44
2022/07/24 11:21:48;;;;;;;1.40;0.90;;;;;;;26.38;37.79;98935.70;434175;1266;98054;-45
2022/07/24 11:31:53;;;;;;;1.40;1.00;;;;;;;26.25;37.57;98932.61;434236;1267;110072;-44
2022/07/24 11:41:59;;;;;;;0.90;0.90;;;;;;;26.37;37.22;98927.37;434374;1268;108873;-43
2022/07/24 11:52:02;;;;;;;3.50;0.70;;;;;;;26.40;36.74;98934.25;434171;1268;97624;-44
2022/07/24 12:02:09;;;;;;;3.00;1.10;;;;;;;26.56;36.54;98937.98;434139;1268;97894;-42
2022/07/24 12:12:19;;;;;;;1.10;1.00;;;;;;;26.66;36.00;98928.52;434171;1266;108890;-43
2022/07/24 12:22:26;;;;;;;0.80;0.80;;;;;;;26.46;35.15;98922.58;434072;1267;97892;-45
2022/07/24 12:32:29;;;;;;;0.70;0.70;;;;;;;26.44;34.95;98920.30;433979;1268;111339;-47
2022/07/24 12:42:35;;;;;;;1.20;1.00;;;;;;;26.53;34.28;98923.63;434255;1267;109319;-43
2022/07/24 12:52:39;;;;;;;1.90;0.70;;;;;;;26.49;34.26;98915.94;434056;1268;98016;-42
2022/07/24 13:02:43;;;;;;;3.50;0.90;;;;;;;26.50;34.47;98917.97;434186;1268;98466;-45
2022/07/24 13:12:47;;;;;;;3.10;0.90;;;;;;;26.60;34.70;98915.68;434084;1266;108839;-44
2022/07/24 13:22:52;;;;;;;3.10;1.10;;;;;;;26.52;34.36;98915.88;434213;1268;98054;-43
2022/07/24 13:32:55;;;;;;;1.60;0.90;;;;;;;26.33;34.40;98907.48;434126;1268;108826;-45
2022/07/24 13:42:59;;;;;;;4.40;0.80;;;;;;;26.23;34.61;98902.57;434341;1266;97500;-45
2022/07/24 13:53:05;;;;;;;1.80;1.20;;;;;;;26.13;34.84;98898.83;434426;1266;97923;-42
2022/07/24 14:03:09;;;;;;;1.00;0.80;;;;;;;26.23;34.67;98900.31;434142;1266;97509;-45
2022/07/24 14:13:33;;;;;;;2.20;0.90;;;;;;;26.17;34.32;98894.27;434089;1267;109141;-42
2022/07/24 14:23:37;;;;;;;1.00;0.90;;;;;;;26.20;34.26;98887.49;434020;1267;98096;-43
2022/07/24 14:33:41;;;;;;;4.20;0.80;;;;;;;26.19;34.29;98885.59;434263;1266;96588;-44
2022/07/24 14:43:44;;;;;;;1.20;0.90;;;;;;;26.20;34.54;98879.67;434028;1266;108737;-45
2022/07/24 14:53:48;;;;;;;2.80;1.90;;;;;;;26.15;34.36;98872.41;434138;1267;97782;-41
2022/07/24 15:03:52;;;;;;;1.80;0.80;;;;;;;26.10;34.07;98865.34;434329;1268;108307;-44
2022/07/24 15:23:59;;;;;;;3.50;1.30;;;;;;;25.92;34.52;98850.11;434174;1267;111024;-43
2022/07/24 15:34:03;;;;;;;2.00;1.20;;;;;;;25.89;34.61;98847.92;434331;1267;97961;-43
2022/07/24 15:44:10;;;;;;;1.10;1.00;;;;;;;25.79;34.22;98841.77;434260;1265;97605;-47
2022/07/24 15:54:14;;;;;;;1.50;0.90;;;;;;;25.71;34.09;98849.01;434276;1268;111124;-47
2022/07/24 16:04:18;;;;;;;1.50;1.10;;;;;;;25.53;34.46;98844.30;434188;1266;98409;-43
2022/07/24 16:14:22;;;;;;;2.60;1.00;;;;;;;25.47;34.63;98839.27;434071;1265;97991;-44
2022/07/24 16:24:26;;;;;;;1.80;1.20;;;;;;;25.37;34.36;98839.29;434267;1267;111233;-49
2022/07/24 16:34:30;;;;;;;1.20;1.00;;;;;;;25.22;34.65;98837.18;434273;1267;109645;-45
2022/07/24 16:44:34;;;;;;;3.70;1.20;;;;;;;25.05;34.90;98835.00;434252;1267;97927;-45
2022/07/24 16:54:38;;;;;;;1.40;1.30;;;;;;;24.79;34.93;98826.45;434304;1267;97814;-43
2022/07/24 17:04:42;;;;;;;2.20;1.30;;;;;;;24.47;35.42;98829.16;434104;1265;108774;-44
2022/07/24 17:14:46;;;;;;;3.60;1.20;;;;;;;24.26;35.90;98829.40;433972;1266;97940;-43
2022/07/24 17:24:51;;;;;;;14.60;2.60;;;;;;;24.14;36.35;98831.14;434222;1268;98816;-42
2022/07/24 17:34:55;;;;;;;2.80;1.40;;;;;;;24.02;36.62;98827.63;434128;1266;110025;-43
2022/07/24 17:44:58;;;;;;;3.70;1.50;;;;;;;23.87;37.05;98823.06;434190;1267;97989;-43
2022/07/24 17:55:08;;;;;;;3.80;1.40;;;;;;;23.67;37.33;98821.73;434323;1267;97926;-43
2022/07/24 18:05:14;;;;;;;2.80;1.90;;;;;;;23.40;37.91;98820.84;434443;1266;108636;-43
2022/07/24 18:15:18;;;;;;;4.80;1.40;;;;;;;23.05;38.31;98829.20;433714;1266;97934;-43
2022/07/24 18:25:22;;;;;;;2.90;1.90;;;;;;;22.73;38.96;98828.10;434345;1267;108988;-43
2022/07/24 18:35:29;;;;;;;2.80;2.10;;;;;;;22.25;39.86;98830.42;434032;1267;97923;-44
2022/07/24 18:45:34;;;;;;;6.50;4.10;;;;;;;21.73;40.75;98837.45;434157;1266;111321;-43
2022/07/24 18:55:38;;;;;;;5.40;4.40;;;;;;;21.19;41.91;98846.44;434085;1266;97896;-43
2022/07/24 19:05:42;;;;;;;17.90;10.10;;;;;;;20.62;42.98;98857.27;434068;1266;97929;-45
2022/07/24 19:25:50;;;;;;;12.50;5.50;;;;;;;19.79;44.81;98869.76;434359;1266;108820;-45
2022/07/24 19:35:54;;;;;;;10.30;6.00;;;;;;;19.42;45.82;98877.15;434236;1266;98018;-43
2022/07/24 19:45:58;;;;;;;15.30;6.70;;;;;;;19.13;46.69;98890.34;434116;1266;105415;-44
2022/07/24 19:56:02;;;;;;;7.10;3.90;;;;;;;18.82;47.33;98886.69;434097;1266;97922;-43
2022/07/24 20:06:06;;;;;;;6.40;2.60;;;;;;;18.52;48.36;98895.27;434086;1266;111052;-49
2022/07/24 20:16:10;;;;;;;5.70;3.00;;;;;;;18.25;49.26;98892.59;434274;1266;96692;-43
2022/07/24 20:26:14;;;;;;;6.10;4.00;;;;;;;17.97;49.96;98898.29;434230;1267;98025;-43
2022/07/24 20:36:19;;;;;;;7.80;3.50;;;;;;;17.70;50.39;98892.66;434201;1268;110345;-43
2022/07/24 20:56:25;;;;;;;5.10;3.20;;;;;;;17.46;52.02;98891.79;434119;1267;97933;-42
2022/07/24 21:06:29;;;;;;;4.20;3.30;;;;;;;17.40;52.64;98896.13;434103;1267;97912;-43
2022/07/24 21:16:33;;;;;;;4.30;3.50;;;;;;;17.19;53.25;98904.83;434029;1267;109009;-44
2022/07/24 21:36:44;;;;;;;5.10;3.60;;;;;;;16.65;54.45;98913.23;433976;1266;108980;-46
2022/07/24 21:56:51;;;;;;;6.30;4.90;;;;;;;16.57;55.12;98916.73;434235;1266;111186;-43
2022/07/24 22:07:00;;;;;;;5.60;3.30;;;;;;;16.39;55.37;98915.91;434179;1267;108848;-45
2022/07/24 22:17:03;;;;;;;;;;;;;;;16.28;55.69;98915.52;434585;1267;96691;-42
2022/07/24 22:27:07;;;;;;;5.50;3.20;;;;;;;16.13;55.88;98914.60;434277;1266;97913;-43
2022/07/24 22:37:12;;;;;;;6.20;3.10;;;;;;;16.04;56.48;98912.77;434278;1268;107762;-42
2022/07/24 22:47:17;;;;;;;6.40;3.10;;;;;;;15.96;56.73;98907.52;434380;1268;97908;-43
2022/07/24 22:57:23;;;;;;;20.20;9.70;;;;;;;15.97;57.27;98901.27;434175;1266;108991;-43
2022/07/24 23:17:31;;;;;;;13.10;7.30;;;;;;;15.94;58.22;98894.11;433894;1267;109577;-42
2022/07/24 23:27:41;;;;;;;15.30;9.70;;;;;;;15.84;58.85;98894.86;434049;1266;108851;-43
2022/07/24 23:37:44;;;;;;;20.20;13.00;;;;;;;15.74;59.12;98888.12;434013;1267;97945;-43
2022/07/24 23:47:48;;;;;;;21.30;12.50;;;;;;;15.75;59.80;98881.36;433980;1267;97883;-42
2022/07/24 23:57:53;;;;;;;18.70;11.60;;;;;;;15.77;59.79;98876.55;434121;1267;108931;-42
